Time;durP1;ratioP1;P1;durP2;ratioP2;P2;SDS_P1;SDS_P2;PMS_P1;PMS_P2;Temp;Humidity;BMP_temperature;BMP_pressure;BME280_temperature;BME280_humidity;BME280_pressure;Samples;Min_cycle;Max_cycle;Signal;HPM_P1;HPM_P2
2021/08/28 00:01:14;;;;;;;4.13;2.60;;;;;;;14.45;100.00;100951.59;5019912;28;20297;-80
2021/08/28 00:03:42;;;;;;;2.70;2.50;;;;;;;14.37;100.00;100946.75;5019670;28;20186;-79
2021/08/28 00:06:10;;;;;;;4.30;2.50;;;;;;;14.35;100.00;100946.22;5020035;28;20236;-80
2021/08/28 00:08:35;;;;;;;3.83;2.60;;;;;;;14.41;100.00;100947.81;5018947;28;20190;-79
2021/08/28 00:11:01;;;;;;;3.13;2.60;;;;;;;14.43;100.00;100948.34;5012410;28;20256;-78
2021/08/28 00:13:27;;;;;;;5.20;2.73;;;;;;;14.35;100.00;100959.88;5003584;28;20200;-78
2021/08/28 00:15:54;;;;;;;3.63;2.70;;;;;;;14.30;100.00;100957.22;4997971;28;20229;-78
2021/08/28 00:18:22;;;;;;;4.20;2.90;;;;;;;14.25;100.00;100960.00;4998715;28;20591;-78
2021/08/28 00:20:48;;;;;;;2.90;2.60;;;;;;;14.33;100.00;100962.09;4985228;28;20308;-78
2021/08/28 00:23:13;;;;;;;4.30;3.10;;;;;;;14.23;100.00;100959.47;5001258;28;20251;-78
2021/08/28 00:25:39;;;;;;;4.90;3.30;;;;;;;14.37;100.00;100957.66;4998060;28;20229;-78
2021/08/28 00:28:05;;;;;;;3.47;3.17;;;;;;;14.37;100.00;100957.66;4996079;28;20197;-78
2021/08/28 00:30:33;;;;;;;3.77;3.30;;;;;;;14.34;100.00;100963.75;4977864;28;20233;-78
2021/08/28 00:33:12;;;;;;;3.63;3.33;;;;;;;14.41;100.00;100957.91;4994463;28;20186;-77
2021/08/28 00:35:38;;;;;;;6.70;3.67;;;;;;;14.40;100.00;100968.03;4977159;28;20287;-78
2021/08/28 00:38:06;;;;;;;4.20;3.60;;;;;;;14.46;100.00;100955.94;4994263;28;20189;-77
2021/08/28 00:40:35;;;;;;;3.67;3.37;;;;;;;14.44;100.00;100955.41;4977641;28;20222;-77
2021/08/28 00:43:01;;;;;;;4.80;3.57;;;;;;;14.47;100.00;100959.47;4993365;28;20189;-78
2021/08/28 00:45:36;;;;;;;4.47;3.00;;;;;;;14.42;100.00;100960.38;4993011;28;20237;-78
2021/08/28 00:48:08;;;;;;;4.40;3.50;;;;;;;14.30;100.00;100956.38;4993398;28;20185;-77
2021/08/28 00:50:35;;;;;;;6.53;3.43;;;;;;;14.37;100.00;100956.88;4977129;28;20324;-77
2021/08/28 00:53:07;;;;;;;7.47;4.30;;;;;;;14.37;100.00;100968.59;4993229;28;20190;-78
2021/08/28 00:55:36;;;;;;;4.00;3.60;;;;;;;14.33;100.00;100964.03;4992754;28;20225;-78
2021/08/28 00:58:03;;;;;;;6.63;4.60;;;;;;;14.43;100.00;100967.47;4993753;28;20177;-78
2021/08/28 01:00:45;;;;;;;4.87;4.30;;;;;;;14.47;100.00;100968.53;4994501;28;20229;-78
2021/08/28 01:03:19;;;;;;;4.80;4.30;;;;;;;14.35;100.00;100959.88;5006817;28;20191;-79
2021/08/28 01:06:16;;;;;;;5.60;4.40;;;;;;;14.43;100.00;100967.47;5003715;28;20233;-78
2021/08/28 01:09:11;;;;;;;7.20;4.97;;;;;;;14.28;100.00;100958.59;4979520;28;20198;-78
2021/08/28 01:12:15;;;;;;;6.67;5.03;;;;;;;14.28;100.00;100953.97;4983957;28;20308;-79
2021/08/28 01:15:08;;;;;;;6.93;4.83;;;;;;;14.31;100.00;100956.09;4985347;28;20189;-78
2021/08/28 01:17:35;;;;;;;5.80;4.90;;;;;;;14.37;100.00;100956.88;4985175;28;20217;-79
2021/08/28 01:20:15;;;;;;;5.80;4.80;;;;;;;14.39;100.00;100965.59;4966865;28;20194;-78
2021/08/28 01:23:01;;;;;;;6.23;4.93;;;;;;;14.35;100.00;100957.16;4999038;28;20208;-78
2021/08/28 01:25:49;;;;;;;5.70;5.10;;;;;;;14.42;100.00;100967.75;4981418;28;20229;-78
2021/08/28 01:28:22;;;;;;;7.13;5.40;;;;;;;14.27;100.00;100957.78;4969476;28;20191;-78
2021/08/28 01:30:50;;;;;;;6.43;5.37;;;;;;;14.16;100.00;100955.47;4980752;28;20213;-78
2021/08/28 01:33:18;;;;;;;6.13;5.10;;;;;;;14.13;100.00;100960.69;4965491;28;20250;-78
2021/08/28 01:35:43;;;;;;;5.47;4.97;;;;;;;14.24;100.00;100952.09;4948265;28;20734;-78
2021/08/28 01:38:13;;;;;;;6.00;5.20;;;;;;;14.20;100.00;100955.69;4961949;28;20209;-78
2021/08/28 01:40:52;;;;;;;7.27;5.30;;;;;;;14.27;100.00;100952.31;4964876;28;20666;-78
2021/08/28 01:43:18;;;;;;;6.70;5.50;;;;;;;14.29;100.00;100954.78;4965171;28;20190;-79
2021/08/28 01:45:44;;;;;;;8.03;5.70;;;;;;;14.23;100.00;100946.91;4981840;28;20229;-78
2021/08/28 01:48:14;;;;;;;7.10;5.67;;;;;;;14.12;100.00;100948.09;4982812;28;20196;-78
2021/08/28 01:50:42;;;;;;;6.33;5.30;;;;;;;14.07;100.00;100948.97;4969476;28;20236;-78
2021/08/28 01:53:19;;;;;;;6.33;5.43;;;;;;;14.14;100.00;100948.63;4980333;28;20225;-78
2021/08/28 01:55:47;;;;;;;6.63;5.33;;;;;;;14.23;100.00;100944.16;4972420;28;20316;-78
2021/08/28 01:58:13;;;;;;;6.03;5.43;;;;;;;14.28;100.00;100948.50;4984091;28;20255;-78
2021/08/28 02:00:57;;;;;;;6.77;5.63;;;;;;;14.30;100.00;100951.75;4986892;28;20224;-79
2021/08/28 02:03:44;;;;;;;6.80;5.07;;;;;;;14.25;100.00;100943.59;4996077;28;20196;-78
2021/08/28 02:06:18;;;;;;;5.53;5.03;;;;;;;14.27;100.00;100949.59;4998165;28;20236;-78
2021/08/28 02:08:59;;;;;;;5.60;5.10;;;;;;;14.24;100.00;100941.16;4984066;28;20566;-78
2021/08/28 02:11:40;;;;;;;5.50;5.00;;;;;;;14.26;100.00;100942.50;4987146;28;20229;-78
2021/08/28 02:14:21;;;;;;;6.30;5.40;;;;;;;14.37;100.00;100943.19;4986477;28;20190;-78
2021/08/28 02:16:52;;;;;;;5.97;5.30;;;;;;;14.06;100.00;100943.81;4989046;28;20294;-79
2021/08/28 02:19:25;;;;;;;6.93;5.57;;;;;;;14.06;100.00;100943.81;4988114;28;20258;-78
2021/08/28 02:22:13;;;;;;;5.60;5.10;;;;;;;14.16;100.00;100932.78;5002324;28;20297;-78
2021/08/28 02:25:29;;;;;;;5.70;4.90;;;;;;;14.22;100.00;100939.81;4997478;28;20220;-78
2021/08/28 02:27:59;;;;;;;5.50;4.90;;;;;;;14.19;100.00;100932.19;4987893;28;20182;-78
2021/08/28 02:30:27;;;;;;;7.23;4.90;;;;;;;14.07;100.00;100932.59;4987943;28;20607;-78
2021/08/28 02:33:13;;;;;;;5.67;5.13;;;;;;;14.12;100.00;100937.19;4975984;28;20251;-79
2021/08/28 02:35:53;;;;;;;7.67;5.47;;;;;;;14.05;100.00;100934.00;4981148;28;20226;-79
2021/08/28 02:38:20;;;;;;;6.83;5.60;;;;;;;14.10;100.00;100928.47;4964910;28;20205;-78
2021/08/28 02:40:47;;;;;;;6.80;5.50;;;;;;;14.22;100.00;100926.97;4979012;28;20284;-79
2021/08/28 02:43:15;;;;;;;8.27;6.23;;;;;;;14.25;100.00;100935.41;4985705;28;20259;-79
2021/08/28 02:45:42;;;;;;;9.30;6.40;;;;;;;14.32;100.00;100938.63;4983698;28;20234;-78
2021/08/28 02:48:08;;;;;;;7.40;6.40;;;;;;;14.31;100.00;100936.16;4966089;28;20182;-78
2021/08/28 02:50:35;;;;;;;6.90;5.33;;;;;;;14.18;100.00;100933.31;4963621;28;20249;-78
2021/08/28 02:53:03;;;;;;;6.93;5.70;;;;;;;14.25;100.00;100938.13;4967493;28;20186;-78
2021/08/28 02:55:30;;;;;;;6.83;5.50;;;;;;;14.28;100.00;100943.03;4967562;28;20234;-78
2021/08/28 02:57:58;;;;;;;6.90;5.80;;;;;;;14.27;100.00;100935.94;4950972;28;20188;-78
2021/08/28 03:00:26;;;;;;;6.20;5.23;;;;;;;14.28;100.00;100934.84;4974163;28;20212;-78
2021/08/28 03:02:52;;;;;;;6.40;5.80;;;;;;;14.14;100.00;100929.50;5000058;28;20261;-78
2021/08/28 03:05:18;;;;;;;6.37;5.60;;;;;;;14.15;100.00;100942.06;4994981;28;20232;-78
2021/08/28 03:07:45;;;;;;;6.00;5.50;;;;;;;14.26;100.00;100942.50;4977778;28;20186;-78
2021/08/28 03:10:12;;;;;;;6.20;5.60;;;;;;;14.33;100.00;100940.22;4961647;28;20609;-78
2021/08/28 03:12:38;;;;;;;9.23;6.60;;;;;;;14.35;100.00;100938.03;5015914;28;20194;-78
2021/08/28 03:15:08;;;;;;;12.17;6.90;;;;;;;14.13;100.00;100928.69;4985858;28;20192;-79
2021/08/28 03:17:41;;;;;;;8.87;6.30;;;;;;;14.10;100.00;100939.38;4991292;28;20189;-77
2021/08/28 03:20:13;;;;;;;11.67;6.80;;;;;;;14.02;100.00;100929.91;4973484;28;20195;-78
2021/08/28 03:22:40;;;;;;;10.50;6.70;;;;;;;14.06;100.00;100930.13;4976575;28;20202;-79
2021/08/28 03:25:08;;;;;;;7.57;6.77;;;;;;;13.96;100.00;100928.28;4971889;28;20189;-79
2021/08/28 03:27:35;;;;;;;8.87;6.87;;;;;;;13.86;100.00;100924.84;4971361;28;20210;-79
2021/08/28 03:30:04;;;;;;;8.87;6.70;;;;;;;13.86;100.00;100912.00;4991203;28;20181;-79
2021/08/28 03:32:37;;;;;;;11.47;8.10;;;;;;;13.90;100.00;100920.44;4973292;28;20225;-78
2021/08/28 03:35:03;;;;;;;21.80;9.03;;;;;;;13.97;100.00;100920.91;5004706;28;20191;-79
2021/08/28 03:37:29;;;;;;;31.17;9.47;;;;;;;14.01;100.00;100931.03;4991343;28;20222;-79
2021/08/28 03:39:59;;;;;;;47.97;10.10;;;;;;;13.82;100.00;100924.59;4975388;28;20207;-78
2021/08/28 03:42:28;;;;;;;23.93;8.80;;;;;;;13.93;100.00;100928.06;5006669;28;20229;-79
2021/08/28 03:44:56;;;;;;;12.73;8.50;;;;;;;14.04;100.00;100924.16;4991673;28;20182;-78
2021/08/28 03:47:25;;;;;;;82.10;12.03;;;;;;;14.04;100.00;100930.44;4991571;28;20224;-78
2021/08/28 03:49:50;;;;;;;34.70;8.57;;;;;;;14.11;100.00;100935.56;4991331;28;20671;-79
2021/08/28 03:52:16;;;;;;;29.00;8.63;;;;;;;14.10;100.00;100933.91;4991310;28;20320;-78
2021/08/28 03:54:45;;;;;;;24.70;7.77;;;;;;;14.11;100.00;100924.63;4991903;28;20194;-79
2021/08/28 03:57:10;;;;;;;51.57;9.40;;;;;;;14.07;100.00;100937.25;5008882;28;20221;-79
2021/08/28 03:59:44;;;;;;;79.47;12.77;;;;;;;14.14;100.00;100938.53;5005723;28;20325;-79
2021/08/28 04:02:18;;;;;;;31.37;7.80;;;;;;;14.11;100.00;100938.28;5006482;28;20225;-79
2021/08/28 04:04:48;;;;;;;57.17;9.87;;;;;;;14.28;100.00;100934.84;5007302;28;20220;-79
2021/08/28 04:07:15;;;;;;;32.43;7.70;;;;;;;14.24;100.00;100935.69;5006396;28;20236;-80
2021/08/28 04:09:43;;;;;;;42.10;8.10;;;;;;;14.18;100.00;100946.97;5008900;28;20178;-79
2021/08/28 04:12:09;;;;;;;36.77;8.17;;;;;;;14.23;100.00;100948.56;4992169;28;20213;-80
2021/08/28 04:14:45;;;;;;;38.47;8.20;;;;;;;14.14;100.00;100956.81;4993482;28;20192;-79
2021/08/28 04:17:11;;;;;;;34.50;8.60;;;;;;;14.16;100.00;100954.66;4969351;28;20281;-79
2021/08/28 04:19:36;;;;;;;23.67;7.43;;;;;;;14.16;100.00;100960.13;4989643;28;20895;-79
2021/08/28 04:22:22;;;;;;;19.00;7.13;;;;;;;14.13;100.00;100963.41;4974885;28;20234;-79
2021/08/28 04:25:13;;;;;;;21.53;7.33;;;;;;;13.90;100.00;100961.41;4978053;28;20206;-79
2021/08/28 04:28:03;;;;;;;15.23;6.73;;;;;;;13.97;100.00;100970.06;4979657;28;20190;-79
2021/08/28 04:30:35;;;;;;;17.77;7.40;;;;;;;14.01;100.00;100973.84;5007023;28;20217;-79
2021/08/28 04:33:03;;;;;;;8.67;7.47;;;;;;;13.89;100.00;100962.50;5009714;28;20185;-80
2021/08/28 04:35:34;;;;;;;9.47;7.50;;;;;;;13.91;100.00;100973.97;5006960;28;20225;-80
2021/08/28 04:38:00;;;;;;;9.80;6.90;;;;;;;13.84;100.00;100965.28;5007291;28;20194;-78
2021/08/28 04:40:30;;;;;;;14.10;7.60;;;;;;;13.91;100.00;100968.50;4972978;28;20248;-79
2021/08/28 04:43:00;;;;;;;19.53;8.37;;;;;;;13.79;100.00;100973.53;4989603;28;20214;-79
2021/08/28 04:45:53;;;;;;;15.50;7.47;;;;;;;13.86;100.00;100974.00;4987984;28;20233;-80
2021/08/28 04:48:25;;;;;;;11.63;6.80;;;;;;;13.82;100.00;100967.47;4971922;28;20329;-79
2021/08/28 04:50:54;;;;;;;11.20;7.50;;;;;;;13.83;100.00;100963.66;4955107;28;20244;-79
2021/08/28 04:53:22;;;;;;;16.43;7.70;;;;;;;13.79;100.00;100961.75;5019047;28;20205;-80
2021/08/28 04:55:48;;;;;;;12.43;7.23;;;;;;;13.81;100.00;100971.31;4988402;28;20236;-79
2021/08/28 04:58:16;;;;;;;7.83;7.00;;;;;;;13.89;100.00;100954.31;5004811;28;20192;-79
2021/08/28 05:01:02;;;;;;;8.60;6.83;;;;;;;13.98;100.00;100968.97;4990417;28;20221;-79
2021/08/28 05:03:50;;;;;;;7.00;6.13;;;;;;;14.04;100.00;100973.31;5003691;28;20198;-79
2021/08/28 05:06:16;;;;;;;7.10;6.40;;;;;;;14.07;100.00;100979.03;4988865;28;20236;-79
2021/08/28 05:08:41;;;;;;;8.83;6.53;;;;;;;14.09;100.00;100981.47;4989567;28;20660;-80
2021/08/28 05:11:12;;;;;;;6.70;6.00;;;;;;;14.19;100.00;100986.84;5004614;28;20228;-79
2021/08/28 05:13:40;;;;;;;6.80;6.10;;;;;;;14.22;100.00;100997.22;4988602;28;20189;-79
2021/08/28 05:16:08;;;;;;;6.73;6.03;;;;;;;14.22;100.00;100991.75;5003422;28;20225;-79
2021/08/28 05:18:39;;;;;;;7.57;6.30;;;;;;;14.28;100.00;100991.38;4988422;28;20193;-78
2021/08/28 05:21:08;;;;;;;6.17;5.57;;;;;;;14.20;100.00;100993.94;5004146;28;20226;-78
2021/08/28 05:24:00;;;;;;;6.93;5.83;;;;;;;14.34;100.00;100998.44;4989139;28;20189;-79
2021/08/28 05:26:41;;;;;;;8.47;5.83;;;;;;;14.21;100.00;100995.56;4974394;28;20240;-80
2021/08/28 05:29:08;;;;;;;6.80;6.10;;;;;;;14.20;100.00;100993.94;4988517;28;20663;-80
2021/08/28 05:31:36;;;;;;;6.77;6.17;;;;;;;14.24;100.00;100993.88;4971523;28;20222;-79
2021/08/28 05:34:09;;;;;;;8.53;6.90;;;;;;;14.31;100.00;101001.75;4988094;28;20185;-80
2021/08/28 05:37:07;;;;;;;7.97;6.77;;;;;;;14.45;100.00;101000.81;4949215;28;20225;-80
2021/08/28 05:40:06;;;;;;;10.10;7.27;;;;;;;14.34;100.00;100999.28;4989067;28;20198;-80
2021/08/28 05:42:37;;;;;;;8.23;6.70;;;;;;;14.53;100.00;101000.16;4989156;28;20214;-80
2021/08/28 05:45:06;;;;;;;7.23;6.53;;;;;;;14.48;100.00;100996.66;4989075;28;20208;-80
2021/08/28 05:47:34;;;;;;;8.63;7.37;;;;;;;14.34;100.00;100996.53;5002757;28;20280;-79
2021/08/28 05:50:05;;;;;;;7.73;6.90;;;;;;;14.42;100.00;100998.63;5003882;28;20213;-80
2021/08/28 05:52:31;;;;;;;8.03;6.87;;;;;;;14.55;100.00;101008.06;5003244;28;20563;-79
2021/08/28 05:54:59;;;;;;;8.20;7.10;;;;;;;14.71;100.00;100991.22;4986417;28;20209;-79
2021/08/28 05:57:25;;;;;;;7.37;6.67;;;;;;;14.65;100.00;100997.81;4987036;28;20229;-79
2021/08/28 05:59:51;;;;;;;8.93;7.80;;;;;;;14.84;100.00;100998.72;5004315;28;20195;-80
2021/08/28 06:02:21;;;;;;;8.53;7.60;;;;;;;14.88;100.00;101000.56;5005127;28;20238;-79
2021/08/28 06:04:52;;;;;;;8.63;7.50;;;;;;;14.95;100.00;101005.69;5001776;28;20186;-79
2021/08/28 06:07:37;;;;;;;11.90;8.37;;;;;;;14.99;100.00;101008.34;5003437;28;20241;-79
2021/08/28 06:10:30;;;;;;;13.63;9.07;;;;;;;14.88;100.00;101013.44;5000646;28;20221;-79
2021/08/28 06:13:18;;;;;;;14.70;9.47;;;;;;;14.92;100.00;101009.81;5005196;28;20189;-79
2021/08/28 06:15:56;;;;;;;15.43;10.10;;;;;;;14.99;100.00;101016.56;4987308;28;20224;-80
2021/08/28 06:18:22;;;;;;;20.17;11.20;;;;;;;14.92;100.00;101009.00;5004480;28;20204;-79
2021/08/28 06:20:52;;;;;;;18.87;9.73;;;;;;;15.03;100.00;101012.13;4969060;28;20214;-79
2021/08/28 06:23:23;;;;;;;15.37;9.50;;;;;;;15.12;100.00;101010.38;5002354;28;20277;-79
2021/08/28 06:26:26;;;;;;;17.60;9.43;;;;;;;15.15;100.00;101012.56;4971375;28;20222;-79
2021/08/28 06:28:56;;;;;;;13.87;8.50;;;;;;;15.21;100.00;101011.38;4997925;28;20193;-80
2021/08/28 06:31:23;;;;;;;12.00;8.03;;;;;;;15.23;100.00;101011.91;5004080;28;20221;-80
2021/08/28 06:33:49;;;;;;;12.23;7.93;;;;;;;15.20;100.00;101008.94;4986933;28;20472;-78
2021/08/28 06:36:23;;;;;;;12.13;8.07;;;;;;;15.32;100.00;101014.81;4986960;28;20608;-80
2021/08/28 06:39:11;;;;;;;10.50;8.00;;;;;;;15.19;100.00;101018.28;5006148;28;20217;-79
2021/08/28 06:41:55;;;;;;;11.77;8.17;;;;;;;15.24;100.00;101019.03;5003309;28;20257;-81
2021/08/28 06:44:42;;;;;;;10.57;8.40;;;;;;;15.51;100.00;101008.22;4987460;28;20204;-81
2021/08/28 06:47:28;;;;;;;11.97;8.63;;;;;;;15.51;100.00;101000.84;4999936;28;20220;-79
2021/08/28 06:50:39;;;;;;;14.87;8.83;;;;;;;15.33;100.00;101014.53;4944740;28;20225;-79
2021/08/28 06:53:26;;;;;;;12.20;9.30;;;;;;;15.36;100.00;101008.44;4955614;29;20257;-79
2021/08/28 06:56:13;;;;;;;13.27;9.20;;;;;;;15.51;100.00;101009.06;4990737;28;20256;-79
2021/08/28 06:58:57;;;;;;;15.00;9.77;;;;;;;15.57;100.00;101009.81;5000533;28;20212;-79
2021/08/28 07:01:50;;;;;;;13.33;9.07;;;;;;;15.58;100.00;101005.94;4998138;28;20688;-79
2021/08/28 07:04:24;;;;;;;13.30;8.97;;;;;;;15.71;100.00;101003.28;4998649;28;20197;-78
2021/08/28 07:07:08;;;;;;;13.03;9.03;;;;;;;15.38;100.00;101008.16;4996126;28;20223;-79
2021/08/28 07:09:37;;;;;;;11.47;8.40;;;;;;;15.79;100.00;101017.13;5001165;28;20208;-79
2021/08/28 07:12:03;;;;;;;10.43;7.83;;;;;;;15.81;100.00;101011.34;4996149;28;20244;-79
2021/08/28 07:14:30;;;;;;;8.87;7.57;;;;;;;15.96;100.00;101009.16;4962956;28;20202;-79
2021/08/28 07:16:59;;;;;;;9.03;7.53;;;;;;;16.04;100.00;101013.97;4996911;28;20291;-79
2021/08/28 07:19:27;;;;;;;8.27;7.00;;;;;;;16.06;100.00;101006.28;4981549;28;20575;-79
2021/08/28 07:21:52;;;;;;;7.60;6.80;;;;;;;15.84;100.00;101014.31;4960020;28;20226;-78
2021/08/28 07:24:18;;;;;;;7.83;6.63;;;;;;;16.02;100.00;101018.94;4997380;28;20573;-79
2021/08/28 07:26:46;;;;;;;9.00;7.30;;;;;;;16.16;100.00;101011.59;4996596;28;20279;-78
2021/08/28 07:29:41;;;;;;;8.17;6.93;;;;;;;15.85;100.00;101012.38;4910575;28;20197;-79
2021/08/28 07:32:11;;;;;;;7.50;6.70;;;;;;;16.00;100.00;101010.19;4981316;28;20217;-78
2021/08/28 07:34:39;;;;;;;10.90;8.67;;;;;;;15.80;100.00;101013.28;4980239;28;20182;-80
2021/08/28 07:37:08;;;;;;;9.77;8.77;;;;;;;16.01;100.00;101005.56;4997438;28;20607;-79
2021/08/28 07:39:40;;;;;;;10.27;9.17;;;;;;;16.07;100.00;101010.63;4996442;28;20185;-79
2021/08/28 07:42:13;;;;;;;10.20;9.20;;;;;;;16.12;100.00;101002.34;4995138;28;20280;-78
2021/08/28 07:44:45;;;;;;;9.63;8.63;;;;;;;16.20;100.00;101018.13;4975054;28;20182;-79
2021/08/28 07:47:11;;;;;;;9.87;8.50;;;;;;;16.13;100.00;101011.38;4993341;28;20222;-82
2021/08/28 07:49:40;;;;;;;10.37;8.23;;;;;;;16.06;100.00;101011.75;4976576;28;20185;-76
2021/08/28 07:52:11;;;;;;;12.13;8.93;;;;;;;16.04;100.00;101007.69;4980608;28;20218;-80
2021/08/28 07:54:37;;;;;;;10.50;9.13;;;;;;;16.10;100.00;101018.28;4996661;28;20199;-80
2021/08/28 07:57:05;;;;;;;11.73;9.93;;;;;;;16.00;100.00;101023.09;4955503;28;20612;-79
2021/08/28 07:59:31;;;;;;;12.23;9.60;;;;;;;15.98;100.00;101020.66;4979944;28;20181;-79
2021/08/28 08:02:04;;;;;;;14.37;11.60;;;;;;;15.87;100.00;101026.59;4982957;28;20711;-78
2021/08/28 08:04:34;;;;;;;16.40;12.00;;;;;;;15.80;100.00;101021.50;4961369;28;20547;-79
2021/08/28 08:07:21;;;;;;;17.33;14.53;;;;;;;15.69;100.00;101023.84;4978058;28;20669;-78
2021/08/28 08:10:08;;;;;;;23.10;16.27;;;;;;;15.50;100.00;101015.63;4979705;28;20212;-76
2021/08/28 08:12:53;;;;;;;23.10;17.50;;;;;;;15.50;100.00;101028.53;4983185;28;20209;-76
2021/08/28 08:15:39;;;;;;;17.90;16.00;;;;;;;15.43;100.00;101020.66;4981487;28;20718;-74
2021/08/28 08:18:24;;;;;;;23.47;17.97;;;;;;;15.38;100.00;101019.13;4993674;28;20682;-77
2021/08/28 08:21:09;;;;;;;25.17;18.80;;;;;;;15.58;100.00;101028.66;4996261;28;20284;-77
2021/08/28 08:24:07;;;;;;;25.23;19.53;;;;;;;15.52;100.00;101029.03;4992072;28;20198;-78
2021/08/28 08:26:53;;;;;;;23.80;19.40;;;;;;;15.64;100.00;101023.94;4953032;28;20644;-76
2021/08/28 08:29:38;;;;;;;24.30;19.43;;;;;;;15.78;100.00;101034.66;4965648;28;20279;-77
2021/08/28 08:32:20;;;;;;;26.27;20.23;;;;;;;15.79;100.00;101032.75;4980823;28;20213;-80
2021/08/28 08:34:49;;;;;;;24.50;19.13;;;;;;;15.85;100.00;101034.28;4978694;28;20260;-77
2021/08/28 08:37:18;;;;;;;24.20;19.60;;;;;;;16.02;100.00;101037.31;4963221;28;20222;-76
2021/08/28 08:39:44;;;;;;;24.93;20.07;;;;;;;16.14;100.00;101035.75;4992254;28;20182;-77
2021/08/28 08:42:14;;;;;;;25.83;19.50;;;;;;;16.28;100.00;101031.13;4962362;28;20280;-77
2021/08/28 08:44:40;;;;;;;23.25;19.17;;;;;;;16.20;100.00;101029.09;4996619;28;20307;-79
2021/08/28 08:47:07;;;;;;;21.60;18.50;;;;;;;16.27;100.00;101032.25;4978917;28;20782;-78
2021/08/28 08:49:33;;;;;;;19.93;17.73;;;;;;;16.35;100.00;101031.56;4993684;28;20181;-78
2021/08/28 08:51:59;;;;;;;22.93;17.77;;;;;;;16.47;100.00;101037.41;4975679;28;20742;-77
2021/08/28 08:54:29;;;;;;;21.20;18.63;;;;;;;16.39;100.00;101035.31;4977648;28;20194;-76
2021/08/28 08:56:54;;;;;;;18.00;16.10;;;;;;;16.38;100.00;101045.50;4957250;28;20233;-75
2021/08/28 08:59:20;;;;;;;22.63;16.75;;;;;;;16.43;100.00;101044.59;4984559;28;20193;-76
2021/08/28 09:01:49;;;;;;;19.90;17.80;;;;;;;16.52;100.00;101040.03;4991396;28;20218;-76
2021/08/28 09:04:33;;;;;;;18.95;16.95;;;;;;;16.56;100.00;101039.16;4991895;28;20216;-76
2021/08/28 09:06:58;;;;;;;18.27;16.38;;;;;;;16.70;100.00;101042.72;4972267;28;20225;-75
2021/08/28 09:09:31;;;;;;;17.75;15.60;;;;;;;16.91;100.00;101039.28;4959576;28;20631;-76
2021/08/28 09:12:05;;;;;;;15.90;14.30;;;;;;;16.94;100.00;101039.50;4991600;28;20226;-75
2021/08/28 09:14:31;;;;;;;17.58;14.35;;;;;;;16.89;100.00;101049.75;4989528;28;20189;-75
2021/08/28 09:16:58;;;;;;;17.40;13.98;;;;;;;16.96;100.00;101037.25;4972389;28;20529;-77
2021/08/28 09:19:39;;;;;;;13.40;12.05;;;;;;;16.84;100.00;101038.88;4971789;28;20189;-76
2021/08/28 09:22:06;;;;;;;14.70;13.13;;;;;;;16.94;100.00;101041.44;4993424;28;20233;-76
2021/08/28 09:24:41;;;;;;;12.73;11.43;;;;;;;16.81;100.00;101036.75;4992185;28;20194;-76
2021/08/28 09:27:06;;;;;;;15.23;11.63;;;;;;;16.86;100.00;101044.06;4997825;28;20259;-77
2021/08/28 09:29:34;;;;;;;14.97;12.80;;;;;;;16.94;100.00;101046.94;4993113;28;20244;-77
2021/08/28 09:32:03;;;;;;;12.85;11.65;;;;;;;16.97;100.00;101055.34;4996212;28;20238;-75
2021/08/28 09:34:31;;;;;;;12.40;11.30;;;;;;;17.06;100.00;101044.47;4960990;28;20181;-75
2021/08/28 09:37:00;;;;;;;15.30;13.80;;;;;;;17.30;100.00;101039.63;4960267;28;20218;-76
2021/08/28 09:39:36;;;;;;;12.38;11.10;;;;;;;17.43;100.00;101045.06;4974015;28;20188;-77
2021/08/28 09:42:03;;;;;;;10.48;9.45;;;;;;;17.41;100.00;101048.13;4969965;28;20253;-75
2021/08/28 09:44:39;;;;;;;9.52;8.52;;;;;;;17.39;100.00;101035.84;4991641;28;20589;-80
2021/08/28 09:47:12;;;;;;;10.70;9.40;;;;;;;17.86;100.00;101038.88;4991991;28;20225;-77
2021/08/28 09:49:47;;;;;;;12.52;10.20;;;;;;;18.18;100.00;101028.47;5000469;28;20193;-79
2021/08/28 09:52:16;;;;;;;9.43;8.45;;;;;;;18.25;100.00;101035.16;4976476;28;20220;-76
2021/08/28 09:54:44;;;;;;;6.80;6.13;;;;;;;18.12;100.00;101036.03;4972550;28;20174;-74
2021/08/28 09:57:10;;;;;;;7.03;6.43;;;;;;;17.78;100.00;101043.19;4979040;28;20259;-77
2021/08/28 09:59:38;;;;;;;7.18;6.45;;;;;;;17.64;100.00;101046.28;4990701;28;20280;-74
2021/08/28 10:02:05;;;;;;;6.75;5.97;;;;;;;17.49;100.00;101039.19;4975006;28;20588;-74
2021/08/28 10:04:48;;;;;;;7.07;6.15;;;;;;;17.69;100.00;101038.75;4992767;28;20189;-75
2021/08/28 10:07:23;;;;;;;7.57;6.88;;;;;;;17.67;100.00;101046.44;4976439;28;20217;-75
2021/08/28 10:09:53;;;;;;;6.93;6.32;;;;;;;17.72;100.00;101038.09;4990723;28;20231;-75
2021/08/28 10:12:19;;;;;;;8.98;6.93;;;;;;;17.42;100.00;101036.03;4991636;28;20218;-72
2021/08/28 10:14:46;;;;;;;6.95;6.35;;;;;;;17.50;100.00;101040.78;4975913;28;20237;-74
2021/08/28 10:17:11;;;;;;;7.05;6.40;;;;;;;17.44;100.00;101035.72;4977795;28;20217;-75
2021/08/28 10:19:39;;;;;;;6.90;6.30;;;;;;;17.61;100.00;101042.19;4993417;28;20193;-75
2021/08/28 10:22:07;;;;;;;7.47;6.78;;;;;;;17.97;100.00;101040.28;4994918;28;20983;-75
2021/08/28 10:24:35;;;;;;;7.05;6.35;;;;;;;18.19;100.00;101038.38;4977986;28;20186;-77
2021/08/28 10:27:01;;;;;;;6.57;5.95;;;;;;;18.21;100.00;101034.16;4977477;28;20237;-76
2021/08/28 10:29:26;;;;;;;6.10;5.50;;;;;;;18.20;100.00;101035.31;5002028;28;20193;-76
2021/08/28 10:31:52;;;;;;;6.45;5.85;;;;;;;18.16;100.00;101034.28;4974131;28;20233;-77
2021/08/28 10:34:20;;;;;;;5.15;4.68;;;;;;;17.87;100.00;101035.81;4993097;28;20648;-78
2021/08/28 10:36:45;;;;;;;5.72;5.00;;;;;;;17.88;100.00;101037.44;4993914;28;20881;-75
2021/08/28 10:39:14;;;;;;;5.85;5.25;;;;;;;18.05;100.00;101031.28;4972234;28;20205;-75
2021/08/28 10:41:42;;;;;;;5.63;5.10;;;;;;;17.96;100.00;101041.38;5000994;28;20222;-75
2021/08/28 10:44:07;;;;;;;5.85;5.35;;;;;;;17.78;100.00;101034.09;4975584;28;20240;-73
2021/08/28 10:46:33;;;;;;;6.93;6.25;;;;;;;17.86;100.00;101038.88;4975830;28;20225;-73
2021/08/28 10:49:16;;;;;;;6.00;5.40;;;;;;;18.08;100.00;101031.47;4994454;28;20189;-76
2021/08/28 10:51:47;;;;;;;6.05;5.50;;;;;;;17.90;100.00;101039.88;4975917;28;20279;-73
2021/08/28 10:54:13;;;;;;;6.68;5.97;;;;;;;17.63;100.00;101034.47;4956756;28;20245;-74
2021/08/28 10:56:51;;;;;;;6.63;6.03;;;;;;;17.79;100.00;101038.50;4976300;28;20233;-73
2021/08/28 10:59:32;;;;;;;6.75;5.97;;;;;;;18.00;100.00;101028.63;4996842;28;20190;-75
2021/08/28 11:02:14;;;;;;;8.05;7.25;;;;;;;18.39;100.00;101035.13;4990950;28;20237;-71
2021/08/28 11:04:47;;;;;;;7.43;6.75;;;;;;;18.52;100.00;101021.28;4991894;28;20682;-72
2021/08/28 11:07:39;;;;;;;6.93;6.22;;;;;;;18.81;100.00;101022.41;4974850;28;20236;-74
2021/08/28 11:10:17;;;;;;;6.88;6.15;;;;;;;18.56;100.00;101027.75;4990033;28;20193;-75
2021/08/28 11:12:43;;;;;;;7.28;6.57;;;;;;;18.61;100.00;101025.69;4993254;28;20182;-75
2021/08/28 11:15:24;;;;;;;7.38;6.65;;;;;;;18.96;100.00;101027.47;4974850;28;20652;-76
2021/08/28 11:17:50;;;;;;;6.25;5.75;;;;;;;18.98;100.00;101030.75;4992071;28;20182;-75
2021/08/28 11:20:22;;;;;;;6.55;5.25;;;;;;;19.23;100.00;101021.75;4974324;28;20240;-76
2021/08/28 11:22:48;;;;;;;4.75;4.22;;;;;;;19.47;100.00;101028.47;4975653;28;20448;-78
2021/08/28 11:25:13;;;;;;;5.20;4.30;;;;;;;19.59;100.00;101021.19;4958803;28;20197;-77
2021/08/28 11:27:43;;;;;;;6.55;4.30;;;;;;;20.20;100.00;101017.00;4987925;28;20190;-76
2021/08/28 11:30:10;;;;;;;6.03;4.35;;;;;;;20.45;100.00;101007.84;4973535;28;20185;-74
2021/08/28 11:32:38;;;;;;;5.40;3.67;;;;;;;20.36;100.00;101009.03;4990728;28;20229;-75
2021/08/28 11:35:04;;;;;;;5.05;4.22;;;;;;;20.60;100.00;101012.84;4991841;28;20193;-74
2021/08/28 11:37:34;;;;;;;4.40;4.00;;;;;;;20.93;100.00;101011.94;4975464;28;20285;-73